createdAt,value
2017-10-22T00:00:20.796Z,82.00
2017-10-22T00:01:25.187Z,82.20
2017-10-22T00:02:29.816Z,82.40
2017-10-22T00:03:35.005Z,82.50
2017-10-22T00:04:39.391Z,82.50
2017-10-22T00:05:44.502Z,82.50
2017-10-22T00:06:49.651Z,82.90
2017-10-22T00:07:54.295Z,82.20
2017-10-22T00:08:58.690Z,82.30
2017-10-22T00:10:03.165Z,82.10
2017-10-22T00:11:08.378Z,81.90
2017-10-22T00:12:12.702Z,81.80
2017-10-22T00:13:18.239Z,81.70
2017-10-22T00:14:23.391Z,81.80
2017-10-22T00:15:27.807Z,81.70
2017-10-22T00:16:32.273Z,82.00
2017-10-22T00:17:36.623Z,81.80
2017-10-22T00:18:41.444Z,81.80
2017-10-22T00:19:45.918Z,81.50
2017-10-22T00:20:51.143Z,81.50
2017-10-22T00:21:56.307Z,81.10
2017-10-22T00:23:00.698Z,81.00
2017-10-22T00:24:06.192Z,80.70
2017-10-22T00:25:10.611Z,80.60
2017-10-22T00:26:16.447Z,80.80
2017-10-22T00:27:21.285Z,80.70
2017-10-22T00:28:26.718Z,80.40
2017-10-22T00:29:31.134Z,80.40
2017-10-22T00:30:36.275Z,80.50
2017-10-22T00:31:41.414Z,80.30
2017-10-22T00:32:45.843Z,80.30
2017-10-22T00:33:50.371Z,80.20
2017-10-22T00:34:55.733Z,80.20
2017-10-22T00:36:00.142Z,80.30
2017-10-22T00:37:04.541Z,80.20
2017-10-22T00:38:08.965Z,80.00
2017-10-22T00:39:14.240Z,80.10
2017-10-22T00:40:19.002Z,79.80
2017-10-22T00:41:23.777Z,80.00
2017-10-22T00:42:28.215Z,79.50
2017-10-22T00:43:32.582Z,79.60
2017-10-22T00:44:36.933Z,79.80
2017-10-22T00:45:41.337Z,79.60
2017-10-22T00:46:45.783Z,79.80
2017-10-22T00:47:50.140Z,79.60
2017-10-22T00:48:54.591Z,79.50
2017-10-22T00:49:58.967Z,79.70
2017-10-22T00:51:03.369Z,79.50
2017-10-22T00:52:07.820Z,79.30
2017-10-22T00:53:12.298Z,79.50
2017-10-22T00:54:16.698Z,79.60
2017-10-22T00:55:21.051Z,79.70
2017-10-22T00:56:25.451Z,79.70
2017-10-22T00:57:30.249Z,79.20
2017-10-22T00:58:34.800Z,79.10
2017-10-22T00:59:40.002Z,79.10
2017-10-22T01:00:44.354Z,79.00
2017-10-22T01:01:48.759Z,79.20
2017-10-22T01:02:53.905Z,78.90
2017-10-22T01:03:58.306Z,78.80
2017-10-22T01:05:02.686Z,78.70
2017-10-22T01:06:07.060Z,78.80
2017-10-22T01:07:11.561Z,78.60
2017-10-22T01:08:15.921Z,78.60
2017-10-22T01:09:21.726Z,79.40
2017-10-22T01:10:27.265Z,79.20
2017-10-22T01:11:31.658Z,79.20
2017-10-22T01:12:38.318Z,78.70
2017-10-22T01:13:42.718Z,78.90
2017-10-22T01:14:47.082Z,78.90
2017-10-22T01:15:51.488Z,79.00
2017-10-22T01:16:55.916Z,79.10
2017-10-22T01:18:01.078Z,78.70
2017-10-22T01:19:05.524Z,78.70
2017-10-22T01:20:09.936Z,78.60
2017-10-22T01:21:14.367Z,78.80
2017-10-22T01:22:19.488Z,78.30
2017-10-22T01:23:24.628Z,78.40
2017-10-22T01:24:29.832Z,78.50
2017-10-22T01:25:34.799Z,78.50
2017-10-22T01:26:39.142Z,78.70
2017-10-22T01:27:43.494Z,78.70
2017-10-22T01:28:48.588Z,78.70
2017-10-22T01:29:52.962Z,78.60
2017-10-22T01:30:57.367Z,78.80
2017-10-22T01:32:01.843Z,78.80
2017-10-22T01:33:07.185Z,79.00
2017-10-22T01:34:12.318Z,78.60
2017-10-22T01:35:16.735Z,78.60
2017-10-22T01:36:21.133Z,78.50
2017-10-22T01:37:25.517Z,78.70
2017-10-22T01:38:31.073Z,78.90
2017-10-22T01:39:36.236Z,79.10
2017-10-22T01:40:40.617Z,79.10
2017-10-22T01:41:45.046Z,78.70
2017-10-22T01:42:49.465Z,78.60
2017-10-22T01:43:53.873Z,78.30
2017-10-22T01:44:58.229Z,78.30
2017-10-22T01:46:03.443Z,78.10
2017-10-22T01:47:07.914Z,78.10
2017-10-22T01:48:12.303Z,77.90
2017-10-22T01:49:17.452Z,78.00
2017-10-22T01:50:21.917Z,78.00
2017-10-22T01:51:27.038Z,78.30
2017-10-22T01:52:31.403Z,78.30
2017-10-22T01:53:35.934Z,78.30
2017-10-22T01:54:40.286Z,78.10
2017-10-22T01:55:45.906Z,77.80
2017-10-22T01:56:52.479Z,77.70
2017-10-22T01:57:57.646Z,78.00
2017-10-22T02:00:04.466Z,78.00
2017-10-22T02:01:08.864Z,78.10
2017-10-22T02:02:13.243Z,78.60
2017-10-22T02:03:17.647Z,78.80
2017-10-22T02:04:22.105Z,78.90
2017-10-22T02:05:26.499Z,79.10
2017-10-22T02:06:30.885Z,78.70
2017-10-22T02:07:35.306Z,78.90
2017-10-22T02:08:39.729Z,79.00
2017-10-22T02:09:44.113Z,79.00
2017-10-22T02:10:48.558Z,79.00
2017-10-22T02:11:52.923Z,79.10
2017-10-22T02:12:57.665Z,79.00
2017-10-22T02:14:02.047Z,79.10
2017-10-22T02:15:06.413Z,79.00
2017-10-22T02:16:11.546Z,79.30
2017-10-22T02:17:17.244Z,79.40
2017-10-22T02:18:21.690Z,79.30
2017-10-22T02:19:26.911Z,79.20
2017-10-22T02:20:32.081Z,79.00
2017-10-22T02:21:36.468Z,78.90
2017-10-22T02:22:41.921Z,79.10
2017-10-22T02:23:46.289Z,79.00
2017-10-22T02:24:51.535Z,79.10
2017-10-22T02:25:57.127Z,79.00
2017-10-22T02:27:01.706Z,79.00
2017-10-22T02:28:06.079Z,79.20
2017-10-22T02:29:11.213Z,78.90
2017-10-22T02:30:16.369Z,79.00
2017-10-22T02:31:20.943Z,79.00
2017-10-22T02:32:25.569Z,78.60
2017-10-22T02:33:30.715Z,78.70
2017-10-22T02:34:35.113Z,78.70
2017-10-22T02:35:40.268Z,78.90
2017-10-22T02:36:44.670Z,78.90
2017-10-22T02:37:49.013Z,78.50
2017-10-22T02:38:54.347Z,78.60
2017-10-22T02:39:58.753Z,78.40
2017-10-22T02:41:03.224Z,78.40
2017-10-22T02:42:07.975Z,78.50
2017-10-22T02:43:12.408Z,78.90
2017-10-22T02:44:16.918Z,79.30
2017-10-22T02:45:21.325Z,79.20
2017-10-22T02:46:25.697Z,79.20
2017-10-22T02:47:30.054Z,78.90
2017-10-22T02:48:34.769Z,79.10
2017-10-22T02:49:39.891Z,78.80
2017-10-22T02:50:44.274Z,78.70
2017-10-22T02:51:48.613Z,78.70
2017-10-22T02:52:52.955Z,79.20
2017-10-22T02:53:57.302Z,79.40
2017-10-22T02:55:01.692Z,79.60
2017-10-22T02:56:06.047Z,79.80
2017-10-22T02:57:11.365Z,80.60
2017-10-22T02:58:15.679Z,80.00
2017-10-22T02:59:20.059Z,80.00
2017-10-22T03:00:24.789Z,79.90
2017-10-22T03:01:29.403Z,79.60
2017-10-22T03:02:33.835Z,79.20
2017-10-22T03:03:38.468Z,79.20
2017-10-22T03:04:42.866Z,79.10
2017-10-22T03:05:48.628Z,78.90
2017-10-22T03:06:53.967Z,78.90
2017-10-22T03:07:58.662Z,78.40
2017-10-22T03:09:05.670Z,78.30
2017-10-22T03:10:10.489Z,78.30
2017-10-22T03:11:14.977Z,77.80
2017-10-22T03:12:19.358Z,77.90
2017-10-22T03:13:24.949Z,77.70
2017-10-22T03:14:29.577Z,77.70
2017-10-22T03:15:33.918Z,77.60
2017-10-22T03:16:39.175Z,77.40
2017-10-22T03:17:43.793Z,77.30
2017-10-22T03:18:48.142Z,77.60
2017-10-22T03:19:54.217Z,77.60
2017-10-22T03:20:59.726Z,77.10
2017-10-22T03:22:04.106Z,77.10
2017-10-22T03:23:08.477Z,77.40
2017-10-22T03:24:13.558Z,76.90
2017-10-22T03:25:17.941Z,76.90
2017-10-22T03:26:22.321Z,77.00
2017-10-22T03:27:27.783Z,76.80
2017-10-22T03:28:32.214Z,76.80
2017-10-22T03:29:36.578Z,76.70
2017-10-22T03:30:41.724Z,76.40
2017-10-22T03:31:46.463Z,76.40
2017-10-22T03:32:50.861Z,76.40
2017-10-22T03:33:55.330Z,76.50
2017-10-22T03:35:00.479Z,76.10
2017-10-22T03:36:05.290Z,75.90
2017-10-22T03:37:12.085Z,75.90
2017-10-22T03:38:17.090Z,75.90
2017-10-22T03:39:22.220Z,76.20
2017-10-22T03:40:26.639Z,75.10
2017-10-22T03:41:31.159Z,75.30
2017-10-22T03:42:35.881Z,75.30
2017-10-22T03:43:40.679Z,75.30
2017-10-22T03:44:45.033Z,75.20
2017-10-22T03:45:49.479Z,75.10
2017-10-22T03:46:54.640Z,74.90
2017-10-22T03:47:58.970Z,74.90
2017-10-22T03:49:03.873Z,74.50
2017-10-22T03:50:08.345Z,74.60
2017-10-22T03:51:13.823Z,74.90
2017-10-22T03:52:18.535Z,74.90
2017-10-22T03:53:22.957Z,74.90
2017-10-22T03:54:27.346Z,74.90
2017-10-22T03:55:31.866Z,74.70
2017-10-22T03:56:36.338Z,74.90
2017-10-22T03:57:41.464Z,75.10
2017-10-22T03:58:46.644Z,75.20
2017-10-22T03:59:51.016Z,75.20
2017-10-22T04:00:55.389Z,75.30
2017-10-22T04:01:59.736Z,75.10
2017-10-22T04:03:04.088Z,74.90
2017-10-22T04:04:08.441Z,75.30
2017-10-22T04:05:12.833Z,75.20
2017-10-22T04:06:17.955Z,75.30
2017-10-22T04:07:22.763Z,75.30
2017-10-22T04:08:27.155Z,75.30
2017-10-22T04:09:31.497Z,75.20
2017-10-22T04:10:36.651Z,75.20
2017-10-22T04:11:41.054Z,75.20
2017-10-22T04:12:45.428Z,75.40
2017-10-22T04:13:50.667Z,76.60
2017-10-22T04:14:55.023Z,76.60
2017-10-22T04:15:59.485Z,77.50
2017-10-22T04:17:04.645Z,79.40
2017-10-22T04:18:09.062Z,79.40
2017-10-22T04:19:13.808Z,80.10
2017-10-22T04:20:18.131Z,80.70
2017-10-22T04:21:22.672Z,81.60
2017-10-22T04:22:27.787Z,82.60
2017-10-22T04:23:32.955Z,82.50
2017-10-22T04:24:37.333Z,82.50
2017-10-22T04:25:43.005Z,84.80
2017-10-22T04:26:47.412Z,84.80
2017-10-22T04:27:55.991Z,84.70
2017-10-22T04:29:01.114Z,85.20
2017-10-22T04:30:06.286Z,85.80
2017-10-22T04:31:10.633Z,86.50
2017-10-22T04:32:15.419Z,86.40
2017-10-22T04:33:19.770Z,87.80
2017-10-22T04:34:24.510Z,88.40
2017-10-22T04:35:28.845Z,89.40
2017-10-22T04:36:33.232Z,90.00
2017-10-22T04:37:37.618Z,90.60
2017-10-22T04:38:42.718Z,92.10
2017-10-22T04:39:47.257Z,92.10
2017-10-22T04:40:52.403Z,93.90
2017-10-22T04:41:56.842Z,93.90
2017-10-22T04:43:01.239Z,94.00
2017-10-22T04:44:05.580Z,93.50
2017-10-22T04:45:10.039Z,93.40
2017-10-22T04:46:14.357Z,93.80
2017-10-22T04:47:18.705Z,94.50
2017-10-22T04:48:23.078Z,94.00
2017-10-22T04:49:27.443Z,93.60
2017-10-22T04:50:32.703Z,94.00
2017-10-22T04:51:37.063Z,94.00
2017-10-22T04:52:42.411Z,94.80
2017-10-22T04:53:47.589Z,95.20
2017-10-22T04:54:52.001Z,95.20
2017-10-22T04:55:56.341Z,95.60
2017-10-22T04:57:00.686Z,95.20
2017-10-22T04:58:05.042Z,94.90
2017-10-22T04:59:09.428Z,95.00
2017-10-22T05:00:13.869Z,95.40
2017-10-22T05:01:18.242Z,96.00
2017-10-22T05:02:22.593Z,95.90
2017-10-22T05:03:26.985Z,96.00
2017-10-22T05:04:31.431Z,96.30
2017-10-22T05:05:37.007Z,95.80
2017-10-22T05:06:41.387Z,95.80
2017-10-22T05:07:46.488Z,96.40
2017-10-22T05:08:50.845Z,96.40
2017-10-22T05:09:55.252Z,96.40
2017-10-22T05:10:59.608Z,96.70
2017-10-22T05:12:04.349Z,96.20
2017-10-22T05:13:09.597Z,95.70
2017-10-22T05:14:14.309Z,95.70
2017-10-22T05:15:18.698Z,95.80
2017-10-22T05:16:23.832Z,95.70
2017-10-22T05:17:28.980Z,96.20
2017-10-22T05:18:33.668Z,96.20
2017-10-22T05:19:38.829Z,96.60
2017-10-22T05:20:43.175Z,96.50
2017-10-22T05:21:47.570Z,96.60
2017-10-22T05:22:51.958Z,96.80
2017-10-22T05:23:56.618Z,96.80
2017-10-22T05:25:00.939Z,96.60
2017-10-22T05:26:05.307Z,96.30
2017-10-22T05:27:09.725Z,96.40
2017-10-22T05:28:14.061Z,96.10
2017-10-22T05:29:18.450Z,96.40
2017-10-22T05:30:22.846Z,96.20
2017-10-22T05:31:27.186Z,96.40
2017-10-22T05:32:31.586Z,96.40
2017-10-22T05:33:35.946Z,96.60
2017-10-22T05:34:40.251Z,96.70
2017-10-22T05:35:44.619Z,96.70
2017-10-22T05:36:48.964Z,96.30
2017-10-22T05:37:53.313Z,96.30
2017-10-22T05:38:57.665Z,95.80
2017-10-22T05:40:02.262Z,96.10
2017-10-22T05:41:07.461Z,96.20
2017-10-22T05:42:13.284Z,96.10
2017-10-22T05:43:17.647Z,95.90
2017-10-22T05:44:22.808Z,96.20
2017-10-22T05:45:27.246Z,96.20
2017-10-22T05:46:31.625Z,96.30
2017-10-22T05:47:35.973Z,96.40
2017-10-22T05:48:40.306Z,96.20
2017-10-22T05:49:45.425Z,95.90
2017-10-22T05:50:50.673Z,96.20
2017-10-22T05:51:55.784Z,95.90
2017-10-22T05:53:01.229Z,96.00
2017-10-22T05:54:05.868Z,96.00
2017-10-22T05:55:10.222Z,95.90
2017-10-22T05:56:14.770Z,95.50
2017-10-22T05:57:19.881Z,96.00
2017-10-22T05:58:25.030Z,95.60
2017-10-22T05:59:29.419Z,95.60
2017-10-22T06:00:34.507Z,96.10
2017-10-22T06:01:38.924Z,96.00
2017-10-22T06:02:43.370Z,96.40
2017-10-22T06:03:48.530Z,95.90
2017-10-22T06:04:52.901Z,95.90
2017-10-22T06:05:58.029Z,95.80
2017-10-22T06:07:03.249Z,95.80
2017-10-22T06:08:08.393Z,95.30
2017-10-22T06:09:13.585Z,95.50
2017-10-22T06:10:18.191Z,95.50
2017-10-22T06:11:22.585Z,95.60
2017-10-22T06:12:26.939Z,95.50
2017-10-22T06:13:32.098Z,96.00
2017-10-22T06:14:36.495Z,96.00
2017-10-22T06:15:41.972Z,96.10
2017-10-22T06:16:47.797Z,96.00
2017-10-22T06:17:52.402Z,96.30
2017-10-22T06:18:56.943Z,96.00
2017-10-22T06:20:01.397Z,95.80
2017-10-22T06:21:06.559Z,95.60
2017-10-22T06:22:11.510Z,95.60
2017-10-22T06:23:15.894Z,95.50
2017-10-22T06:24:20.282Z,95.30
2017-10-22T06:25:24.701Z,95.40
2017-10-22T06:26:29.160Z,95.50
2017-10-22T06:27:34.075Z,95.50
2017-10-22T06:28:38.485Z,95.10
2017-10-22T06:29:42.821Z,94.70
2017-10-22T06:30:47.982Z,94.60
2017-10-22T06:31:52.417Z,95.00
2017-10-22T06:32:56.880Z,95.00
2017-10-22T06:34:01.992Z,94.80
2017-10-22T06:35:07.596Z,94.90
2017-10-22T06:36:11.962Z,94.70
2017-10-22T06:37:16.563Z,94.90
2017-10-22T06:38:21.644Z,94.40
2017-10-22T06:39:26.049Z,94.30
2017-10-22T06:41:08.786Z,94.40
2017-10-22T06:42:13.276Z,94.30
2017-10-22T06:43:17.717Z,94.60
2017-10-22T06:44:23.094Z,94.60
2017-10-22T06:45:27.654Z,94.50
2017-10-22T06:46:32.122Z,94.30
2017-10-22T06:47:36.492Z,93.80
2017-10-22T06:48:41.728Z,93.60
2017-10-22T06:49:46.384Z,93.60
2017-10-22T06:50:51.223Z,93.20
2017-10-22T06:51:55.707Z,93.20
2017-10-22T06:53:00.136Z,93.20
2017-10-22T06:54:06.881Z,93.60
2017-10-22T06:55:12.773Z,92.90
2017-10-22T06:56:20.393Z,93.20
2017-10-22T06:57:26.077Z,92.90
2017-10-22T06:58:31.551Z,92.50
2017-10-22T06:59:38.777Z,92.60
2017-10-22T07:00:43.421Z,92.60
2017-10-22T07:01:49.099Z,92.60
2017-10-22T07:02:53.567Z,92.60
2017-10-22T07:03:58.212Z,92.50
2017-10-22T07:05:02.712Z,92.40
2017-10-22T07:06:07.134Z,92.20
2017-10-22T07:07:11.630Z,92.10
2017-10-22T07:08:16.941Z,91.50
2017-10-22T07:09:22.107Z,91.60
2017-10-22T07:10:26.551Z,91.60
2017-10-22T07:11:31.023Z,91.50
2017-10-22T07:12:36.743Z,91.40
2017-10-22T07:13:42.933Z,91.50
2017-10-22T07:14:48.659Z,91.50
2017-10-22T07:15:55.898Z,91.50
2017-10-22T07:17:02.060Z,91.50
2017-10-22T07:18:07.497Z,91.20
2017-10-22T07:19:14.146Z,91.10
2017-10-22T07:20:19.467Z,91.10
2017-10-22T07:21:24.088Z,91.50
2017-10-22T07:22:32.740Z,91.70
2017-10-22T07:23:37.596Z,91.40
2017-10-22T07:24:42.766Z,90.40
2017-10-22T07:25:49.620Z,90.60
2017-10-22T07:27:01.795Z,90.80
2017-10-22T07:28:07.385Z,90.80
2017-10-22T07:29:13.158Z,90.80
2017-10-22T07:30:19.969Z,90.80
2017-10-22T07:31:25.183Z,90.60
2017-10-22T07:32:30.497Z,90.60
2017-10-22T07:33:35.886Z,90.60
2017-10-22T07:34:40.782Z,90.10
2017-10-22T07:35:45.960Z,90.30
2017-10-22T07:36:50.343Z,90.30
2017-10-22T07:37:54.868Z,90.40
2017-10-22T07:38:59.561Z,90.30
2017-10-22T07:40:04.314Z,90.90
2017-10-22T07:41:08.687Z,90.40
2017-10-22T07:42:13.331Z,90.40
2017-10-22T07:43:17.758Z,90.80
2017-10-22T07:44:22.182Z,91.00
2017-10-22T07:45:26.598Z,90.80
2017-10-22T07:46:31.785Z,90.10
2017-10-22T07:47:36.226Z,90.10
2017-10-22T07:48:40.624Z,90.10
2017-10-22T07:49:45.018Z,90.10
2017-10-22T07:50:49.449Z,89.80
2017-10-22T07:51:54.309Z,90.70
2017-10-22T07:52:59.137Z,90.10
2017-10-22T07:54:03.516Z,89.50
2017-10-22T07:55:08.726Z,89.40
2017-10-22T07:56:13.176Z,89.40
2017-10-22T07:57:17.571Z,89.70
2017-10-22T07:58:23.408Z,90.00
2017-10-22T07:59:28.593Z,90.00
2017-10-22T08:00:32.968Z,89.60
2017-10-22T08:01:37.416Z,89.80
2017-10-22T08:02:41.776Z,90.00
2017-10-22T08:03:46.982Z,89.80
2017-10-22T08:04:52.528Z,89.70
2017-10-22T08:05:57.761Z,89.40
2017-10-22T08:07:02.985Z,89.60
2017-10-22T08:08:08.589Z,89.60
2017-10-22T08:09:13.017Z,89.60
2017-10-22T08:10:17.531Z,90.00
2017-10-22T08:11:22.070Z,90.00
2017-10-22T08:12:27.254Z,90.00
2017-10-22T08:13:31.767Z,90.00
2017-10-22T08:14:36.467Z,89.80
2017-10-22T08:15:40.968Z,89.80
2017-10-22T08:16:45.473Z,89.60
2017-10-22T08:17:49.835Z,89.60
2017-10-22T08:18:55.987Z,88.90
2017-10-22T08:20:00.401Z,88.90
2017-10-22T08:21:04.986Z,88.80
2017-10-22T08:22:09.435Z,88.80
2017-10-22T08:23:14.616Z,89.30
2017-10-22T08:24:19.065Z,89.30
2017-10-22T08:25:24.204Z,88.80
2017-10-22T08:26:29.354Z,88.80
2017-10-22T08:27:33.758Z,88.80
2017-10-22T08:28:38.174Z,88.40
2017-10-22T08:29:43.726Z,89.20
2017-10-22T08:30:48.162Z,89.10
2017-10-22T08:31:52.597Z,88.90
2017-10-22T08:32:57.764Z,88.40
2017-10-22T08:34:02.243Z,88.30
2017-10-22T08:35:06.644Z,88.80
2017-10-22T08:36:11.869Z,88.50
2017-10-22T08:37:17.651Z,88.40
2017-10-22T08:38:22.162Z,88.40
2017-10-22T08:39:26.558Z,88.90
2017-10-22T08:40:31.201Z,89.30
2017-10-22T08:41:35.874Z,89.00
2017-10-22T08:42:41.602Z,88.80
2017-10-22T08:43:46.193Z,89.50
2017-10-22T08:44:50.666Z,88.40
2017-10-22T08:45:55.333Z,87.50
2017-10-22T08:47:00.683Z,87.20
2017-10-22T08:48:06.160Z,87.60
2017-10-22T08:49:11.516Z,87.60
2017-10-22T08:50:17.316Z,88.80
2017-10-22T08:51:22.088Z,88.80
2017-10-22T08:52:27.310Z,88.80
2017-10-22T08:53:31.888Z,89.10
2017-10-22T08:54:36.838Z,87.50
2017-10-22T08:55:41.572Z,87.10
2017-10-22T08:56:46.773Z,85.90
2017-10-22T08:57:51.951Z,85.90
2017-10-22T08:58:57.277Z,86.80
2017-10-22T09:00:02.582Z,87.10
2017-10-22T09:01:07.129Z,87.10
2017-10-22T09:02:13.214Z,86.90
2017-10-22T09:03:18.760Z,87.50
2017-10-22T09:04:23.631Z,87.50
2017-10-22T09:05:30.720Z,87.40
2017-10-22T09:06:36.113Z,87.30
2017-10-22T09:07:42.060Z,87.20
2017-10-22T09:08:46.667Z,87.20
2017-10-22T09:09:51.178Z,87.60
2017-10-22T09:10:56.860Z,87.20
2017-10-22T09:12:01.842Z,87.10
2017-10-22T09:13:06.820Z,86.70
2017-10-22T09:14:12.265Z,86.30
2017-10-22T09:15:17.072Z,85.90
2017-10-22T09:16:22.717Z,85.70
2017-10-22T09:17:30.518Z,87.00
2017-10-22T09:18:36.480Z,87.00
2017-10-22T09:19:41.290Z,86.90
2017-10-22T09:20:45.762Z,87.10
2017-10-22T09:21:50.268Z,87.00
2017-10-22T09:28:49.467Z,86.00
2017-10-22T09:29:55.702Z,85.70
2017-10-22T09:31:00.941Z,85.60
2017-10-22T09:32:06.692Z,84.70
2017-10-22T09:33:11.727Z,84.70
2017-10-22T09:34:17.215Z,84.70
2017-10-22T09:35:21.961Z,84.60
2017-10-22T09:36:27.413Z,85.40
2017-10-22T09:37:32.979Z,85.50
2017-10-22T09:38:37.897Z,85.50
2017-10-22T09:39:42.441Z,84.70
2017-10-22T09:40:47.246Z,84.70
2017-10-22T09:41:51.774Z,85.30
2017-10-22T09:42:56.172Z,85.20
2017-10-22T09:44:00.573Z,85.10
2017-10-22T09:45:05.103Z,85.30
2017-10-22T09:46:10.018Z,85.70
2017-10-22T09:47:15.305Z,85.10
2017-10-22T09:48:20.727Z,85.80
2017-10-22T09:49:26.068Z,86.30
2017-10-22T09:50:31.302Z,86.60
2017-10-22T09:51:36.562Z,87.20
2017-10-22T09:52:41.415Z,87.10
2017-10-22T09:53:45.842Z,87.30
2017-10-22T09:54:51.054Z,87.50
2017-10-22T09:55:55.512Z,87.40
2017-10-22T09:57:00.339Z,87.40
2017-10-22T09:58:04.788Z,88.90
2017-10-22T09:59:09.619Z,89.10
2017-10-22T10:00:14.545Z,90.00
2017-10-22T10:01:19.085Z,90.20
2017-10-22T10:02:23.561Z,90.00
2017-10-22T10:03:28.054Z,90.30
2017-10-22T10:04:32.522Z,90.50
2017-10-22T10:05:37.001Z,90.40
2017-10-22T10:06:42.469Z,89.60
2017-10-22T10:07:46.867Z,89.60
2017-10-22T10:08:52.082Z,90.00
2017-10-22T10:09:57.323Z,90.40
2017-10-22T10:11:02.659Z,90.70
2017-10-22T10:12:07.220Z,90.70
2017-10-22T10:13:12.524Z,90.10
2017-10-22T10:14:17.325Z,90.10
2017-10-22T10:15:21.770Z,89.80
2017-10-22T10:16:26.218Z,90.10
2017-10-22T10:17:31.585Z,90.00
2017-10-22T10:18:36.070Z,90.00
2017-10-22T10:19:41.317Z,90.10
2017-10-22T10:20:45.891Z,90.40
2017-10-22T10:21:51.267Z,90.10
2017-10-22T10:22:55.820Z,90.10
2017-10-22T10:24:00.355Z,90.20
2017-10-22T10:25:04.786Z,90.40
2017-10-22T10:26:10.034Z,91.20
2017-10-22T10:27:14.612Z,91.20
2017-10-22T10:28:19.181Z,91.10
2017-10-22T10:29:23.766Z,91.60
2017-10-22T10:30:28.197Z,91.10
2017-10-22T10:31:33.056Z,91.60
2017-10-22T10:32:37.491Z,91.90
2017-10-22T10:33:42.803Z,91.20
2017-10-22T10:34:47.219Z,91.20
2017-10-22T10:35:51.727Z,91.20
2017-10-22T10:36:56.263Z,91.20
2017-10-22T10:38:00.728Z,91.80
2017-10-22T10:39:05.747Z,91.90
2017-10-22T10:40:10.251Z,91.30
2017-10-22T10:41:14.739Z,91.00
2017-10-22T10:42:21.282Z,90.80
2017-10-22T10:43:25.806Z,91.30
2017-10-22T10:44:30.341Z,91.70
2017-10-22T10:45:35.657Z,91.60
2017-10-22T10:46:42.202Z,91.00
2017-10-22T10:47:49.215Z,90.90
2017-10-22T10:48:54.681Z,91.20
2017-10-22T10:50:00.159Z,91.40
2017-10-22T10:51:05.498Z,91.10
2017-10-22T10:52:11.489Z,91.30
2017-10-22T10:53:16.963Z,91.40
2017-10-22T10:54:21.599Z,91.70
2017-10-22T10:55:26.083Z,90.90
2017-10-22T10:56:33.439Z,90.80
2017-10-22T10:57:39.680Z,90.90
2017-10-22T10:58:46.414Z,91.30
2017-10-22T10:59:52.903Z,91.20
2017-10-22T11:00:58.398Z,91.30
2017-10-22T11:02:02.897Z,91.40
2017-10-22T11:03:08.841Z,91.50
2017-10-22T11:04:15.688Z,91.60
2017-10-22T11:05:21.557Z,91.20
2017-10-22T11:06:26.297Z,91.20
2017-10-22T11:08:00.956Z,91.30
2017-10-22T11:09:06.227Z,91.50
2017-10-22T11:10:10.869Z,91.50
2017-10-22T11:11:15.354Z,91.50
2017-10-22T11:12:19.881Z,91.50
2017-10-22T11:13:24.354Z,91.70
2017-10-22T11:14:29.030Z,91.90
2017-10-22T11:15:33.559Z,91.80
2017-10-22T11:16:38.727Z,92.00
2017-10-22T11:17:44.480Z,91.90
2017-10-22T11:18:50.648Z,92.10
2017-10-22T11:19:56.046Z,92.30
2017-10-22T11:21:01.755Z,92.40
2017-10-22T11:22:06.904Z,92.30
2017-10-22T11:23:13.163Z,92.00
2017-10-22T11:24:19.784Z,92.10
2017-10-22T11:25:25.701Z,92.10
2017-10-22T11:26:32.834Z,92.10
2017-10-22T11:27:38.146Z,92.00
2017-10-22T11:28:44.289Z,92.20
2017-10-22T11:29:51.580Z,92.20
2017-10-22T11:30:58.070Z,92.60
2017-10-22T11:32:02.973Z,92.60
2017-10-22T11:33:07.582Z,92.60
2017-10-22T11:34:13.715Z,92.60
2017-10-22T11:35:18.868Z,92.60
2017-10-22T11:36:23.387Z,92.60
2017-10-22T11:37:27.888Z,92.60
2017-10-22T11:38:32.366Z,92.60
2017-10-22T11:39:37.614Z,92.60
2017-10-22T11:40:42.932Z,92.70
2017-10-22T11:41:48.218Z,92.60
2017-10-22T11:42:53.169Z,92.30
2017-10-22T11:43:57.598Z,92.30
2017-10-22T11:45:03.751Z,92.40
2017-10-22T11:46:09.490Z,92.30
2017-10-22T11:47:15.145Z,92.20
2017-10-22T11:48:23.230Z,92.20
2017-10-22T11:49:28.031Z,92.10
2017-10-22T11:50:33.471Z,92.10
2017-10-22T11:51:38.733Z,92.10
2017-10-22T11:52:43.224Z,92.10
2017-10-22T11:53:47.791Z,92.00
2017-10-22T11:54:52.458Z,91.90
2017-10-22T11:55:59.169Z,91.90
2017-10-22T11:57:03.729Z,91.90
2017-10-22T11:58:08.429Z,91.60
2017-10-22T11:59:13.690Z,91.70
2017-10-22T12:00:18.616Z,91.80
2017-10-22T12:01:23.071Z,91.70
2017-10-22T12:02:27.714Z,91.50
2017-10-22T12:03:33.056Z,91.40
2017-10-22T12:04:38.231Z,91.40
2017-10-22T12:05:42.807Z,91.40
2017-10-22T12:06:47.454Z,91.30
2017-10-22T12:07:51.885Z,91.20
2017-10-22T12:08:56.451Z,91.10
2017-10-22T12:10:00.980Z,91.00
2017-10-22T12:11:05.464Z,91.10
2017-10-22T12:12:10.112Z,90.80
2017-10-22T12:13:14.573Z,90.50
2017-10-22T12:14:19.841Z,90.30
2017-10-22T12:15:24.347Z,90.30
2017-10-22T12:16:29.328Z,90.40
2017-10-22T12:17:34.567Z,90.30
2017-10-22T12:18:39.786Z,90.40
2017-10-22T12:19:44.329Z,90.40
2017-10-22T12:20:48.968Z,90.50
2017-10-22T12:21:53.390Z,90.50
2017-10-22T12:22:58.034Z,90.60
2017-10-22T12:24:02.597Z,90.50
2017-10-22T12:25:07.365Z,90.00
2017-10-22T12:26:12.713Z,90.00
2017-10-22T12:27:18.007Z,89.10
2017-10-22T12:28:22.678Z,89.10
2017-10-22T12:29:27.262Z,89.20
2017-10-22T12:30:32.507Z,89.40
2017-10-22T12:31:37.674Z,89.10
2017-10-22T12:32:42.114Z,89.10
2017-10-22T12:33:47.119Z,88.40
2017-10-22T12:34:52.275Z,88.30
2017-10-22T12:35:57.046Z,88.20
2017-10-22T12:37:01.596Z,88.30
2017-10-22T12:38:06.826Z,88.30
2017-10-22T12:39:12.120Z,86.90
2017-10-22T12:40:16.628Z,86.70
2017-10-22T12:41:21.104Z,86.40
2017-10-22T12:42:25.758Z,85.90
2017-10-22T12:43:30.438Z,86.60
2017-10-22T12:44:35.351Z,85.90
2017-10-22T12:45:40.833Z,86.10
2017-10-22T12:46:45.433Z,86.10
2017-10-22T12:47:50.001Z,85.40
2017-10-22T12:48:55.330Z,85.40
2017-10-22T12:50:00.658Z,85.40
2017-10-22T12:51:05.160Z,85.40
2017-10-22T12:52:09.656Z,85.60
2017-10-22T12:53:14.158Z,85.30
2017-10-22T12:54:18.590Z,83.30
2017-10-22T12:55:24.599Z,83.50
2017-10-22T12:56:29.101Z,84.00
2017-10-22T12:57:33.570Z,84.40
2017-10-22T12:58:38.237Z,83.60
2017-10-22T12:59:43.586Z,82.80
2017-10-22T13:00:48.079Z,83.10
2017-10-22T13:01:53.046Z,82.50
2017-10-22T13:02:57.575Z,82.30
2017-10-22T13:04:02.893Z,83.10
2017-10-22T13:05:08.708Z,81.10
2017-10-22T13:06:13.216Z,81.10
2017-10-22T13:07:19.168Z,80.50
2017-10-22T13:08:23.691Z,81.00
2017-10-22T13:09:28.148Z,80.90
2017-10-22T13:10:32.695Z,80.70
2017-10-22T13:11:38.369Z,81.10
2017-10-22T13:12:46.570Z,81.10
2017-10-22T13:13:51.191Z,81.70
2017-10-22T13:14:56.447Z,80.70
2017-10-22T13:16:01.020Z,80.70
2017-10-22T13:17:06.229Z,80.10
2017-10-22T13:18:11.457Z,80.70
2017-10-22T13:19:16.082Z,81.00
2017-10-22T13:20:20.626Z,81.20
2017-10-22T13:21:25.879Z,81.10
2017-10-22T13:22:30.415Z,81.10
2017-10-22T13:23:34.867Z,81.30
2017-10-22T13:24:39.436Z,81.30
2017-10-22T13:25:43.873Z,80.30
2017-10-22T13:26:49.082Z,80.70
2017-10-22T13:27:53.934Z,80.80
2017-10-22T13:28:59.662Z,81.40
2017-10-22T13:30:04.484Z,81.40
2017-10-22T13:31:08.920Z,81.40
2017-10-22T13:32:14.277Z,80.80
2017-10-22T13:33:19.126Z,80.70
2017-10-22T13:34:24.081Z,79.70
2017-10-22T13:35:29.796Z,80.50
2017-10-22T13:36:34.363Z,80.50
2017-10-22T13:37:38.902Z,80.80
2017-10-22T13:38:43.594Z,80.90
2017-10-22T13:39:48.280Z,80.70
2017-10-22T13:40:54.029Z,80.20
2017-10-22T13:41:59.408Z,79.70
2017-10-22T13:43:03.912Z,79.60
2017-10-22T13:44:09.614Z,80.30
2017-10-22T13:45:14.836Z,80.60
2017-10-22T13:46:19.980Z,79.90
2017-10-22T13:47:24.548Z,79.60
2017-10-22T13:48:29.158Z,79.90
2017-10-22T13:49:33.632Z,79.60
2017-10-22T13:50:38.346Z,80.00
2017-10-22T13:51:42.815Z,79.80
2017-10-22T13:52:50.204Z,80.20
2017-10-22T13:53:54.655Z,80.10
2017-10-22T13:54:59.158Z,80.30
2017-10-22T13:56:03.859Z,80.20
2017-10-22T13:57:09.727Z,80.20
2017-10-22T13:58:14.348Z,80.20
2017-10-22T13:59:18.918Z,80.40
2017-10-22T14:00:23.357Z,79.50
2017-10-22T14:01:27.854Z,80.00
2017-10-22T14:02:33.592Z,79.50
2017-10-22T14:03:38.919Z,79.70